McEwen, Tennessee
Current Conditions -  °F | °C
As of 9:22 AM on Thursday 18 Dec 2014 (Local Time) from KCKV Reporting Station
Freezing Rain Freezing Rain  
Wind Chill: 33°   Ceiling: 3500
Heat Index: 33°   Visibility: 4mi
Dew Point: 30°   Wind: 0mph
Humidity: 89%   Direction: NA
Pressure: 30.28"   Gusts: NA
Location:  36.11°N, 87.63°W
Report Text: KCKV 181522Z AUTO 00000KT 4SM -FZRA BR FEW008 OVC035 01/M01 A3028 RMK AO2 UPB11E16FZRAB16 P0000 I1000 T00061011
Loading
Personal Weather Stations






























Interactive Weather Map New forecast layout! Learn more

10-Day Weather Forecast

Advertisements
Track Severe Weather on mobile